Time;durP1;ratioP1;P1;durP2;ratioP2;P2;SDS_P1;SDS_P2;PMS_P1;PMS_P2;Temp;Humidity;BMP_temperature;BMP_pressure;BME280_temperature;BME280_humidity;BME280_pressure;Samples;Min_cycle;Max_cycle;Signal;HPM_P1;HPM_P2
2023/02/19 00:01:15;;;;;;;6.53;5.38;;;9.00;99.90;;;;;;5064203;28;20021;-68
2023/02/19 00:03:42;;;;;;;7.38;5.13;;;9.00;99.90;;;;;;5058205;28;20025;-69
2023/02/19 00:06:10;;;;;;;6.18;5.57;;;9.00;99.90;;;;;;5059913;28;20032;-69
2023/02/19 00:08:37;;;;;;;7.05;5.13;;;9.00;99.90;;;;;;5052969;28;20064;-70
2023/02/19 00:11:10;;;;;;;6.72;5.88;;;9.00;99.90;;;;;;5063528;28;20047;-68
2023/02/19 00:13:38;;;;;;;6.72;5.78;;;9.00;99.90;;;;;;5053257;28;20028;-71
2023/02/19 00:16:36;;;;;;;6.78;5.78;;;9.00;99.90;;;;;;5063977;28;20048;-69
2023/02/19 00:19:04;;;;;;;7.82;6.43;;;8.90;99.90;;;;;;5054246;28;20045;-68
2023/02/19 00:21:30;;;;;;;6.97;5.78;;;8.90;99.90;;;;;;5064141;28;20025;-68
2023/02/19 00:23:59;;;;;;;7.82;6.10;;;8.90;99.90;;;;;;5063222;28;20012;-68
2023/02/19 00:26:25;;;;;;;6.63;5.93;;;8.90;99.90;;;;;;5070600;28;20076;-68
2023/02/19 00:28:51;;;;;;;6.93;6.22;;;9.00;99.90;;;;;;5067668;28;20059;-68
2023/02/19 00:31:22;;;;;;;5.32;3.92;;;9.00;99.90;;;;;;5066685;28;20047;-68
2023/02/19 00:33:50;;;;;;;5.45;3.40;;;9.10;99.90;;;;;;5063385;28;20079;-69
2023/02/19 00:36:15;;;;;;;6.32;5.55;;;9.10;99.90;;;;;;5050519;28;20548;-69
2023/02/19 00:38:42;;;;;;;6.88;5.65;;;9.20;99.90;;;;;;5065093;28;20060;-69
2023/02/19 00:41:17;;;;;;;6.90;5.22;;;9.20;99.90;;;;;;5068143;28;20029;-68
2023/02/19 00:43:47;;;;;;;3.90;2.70;;;9.20;99.90;;;;;;5059066;28;20040;-68
2023/02/19 00:46:13;;;;;;;4.57;1.83;;;9.40;99.90;;;;;;5066593;28;20525;-68
2023/02/19 00:48:38;;;;;;;2.70;1.70;;;9.70;99.90;;;;;;5059149;28;20025;-70
2023/02/19 00:51:04;;;;;;;4.40;1.80;;;9.70;99.90;;;;;;5065152;28;20543;-68
2023/02/19 00:53:29;;;;;;;1.95;1.33;;;9.80;99.90;;;;;;5045692;28;20100;-69
2023/02/19 00:55:55;;;;;;;1.67;1.52;;;10.00;99.90;;;;;;5066325;28;20480;-68
2023/02/19 00:58:21;;;;;;;1.40;1.30;;;10.20;99.90;;;;;;5063388;28;20414;-69
2023/02/19 01:00:46;;;;;;;2.42;1.80;;;10.20;99.90;;;;;;5069055;28;20028;-68
2023/02/19 01:03:12;;;;;;;1.30;1.17;;;10.30;99.90;;;;;;5061013;28;20024;-68
2023/02/19 01:05:38;;;;;;;1.50;1.40;;;10.40;99.90;;;;;;5065606;28;20029;-70
2023/02/19 01:08:03;;;;;;;1.85;1.20;;;10.30;99.90;;;;;;5052867;28;20422;-68
2023/02/19 01:10:29;;;;;;;4.28;1.40;;;10.40;99.90;;;;;;5040609;28;20029;-68
2023/02/19 01:12:54;;;;;;;2.15;1.10;;;10.40;99.90;;;;;;5044151;28;20029;-68
2023/02/19 01:15:20;;;;;;;1.38;1.23;;;10.40;99.90;;;;;;5050829;28;20033;-67
2023/02/19 01:17:45;;;;;;;1.33;1.23;;;10.50;99.90;;;;;;5042501;28;20033;-68
2023/02/19 01:20:11;;;;;;;3.10;1.40;;;10.60;99.90;;;;;;5049878;28;20106;-68
2023/02/19 01:22:37;;;;;;;1.45;1.20;;;10.60;99.90;;;;;;5048997;28;20036;-70
2023/02/19 01:25:02;;;;;;;1.95;1.20;;;10.60;99.90;;;;;;5032778;28;20029;-68
2023/02/19 01:27:28;;;;;;;1.80;1.23;;;10.50;99.90;;;;;;5061341;28;20049;-68
2023/02/19 01:29:53;;;;;;;2.45;1.20;;;10.50;99.90;;;;;;5063633;28;20457;-68
2023/02/19 01:32:19;;;;;;;2.60;1.08;;;10.50;99.90;;;;;;5063151;28;20060;-68
2023/02/19 01:34:44;;;;;;;1.15;1.05;;;10.60;99.90;;;;;;5056738;28;20029;-68
2023/02/19 01:37:11;;;;;;;3.95;1.80;;;10.60;99.90;;;;;;5062104;28;20037;-68
2023/02/19 01:39:37;;;;;;;1.92;1.52;;;10.50;99.90;;;;;;5061713;28;20028;-70
2023/02/19 01:42:05;;;;;;;1.65;1.20;;;10.60;99.90;;;;;;5054798;28;20025;-67
2023/02/19 01:44:30;;;;;;;1.52;1.15;;;10.60;99.90;;;;;;5065325;28;20029;-68
2023/02/19 01:46:57;;;;;;;1.73;1.30;;;10.50;99.90;;;;;;5060272;28;20190;-68
2023/02/19 01:49:27;;;;;;;1.83;1.23;;;10.50;99.90;;;;;;5064474;28;20057;-69
2023/02/19 01:52:08;;;;;;;1.30;1.20;;;10.50;99.90;;;;;;5062958;28;20032;-68
2023/02/19 01:54:38;;;;;;;1.85;1.10;;;10.50;99.90;;;;;;5066954;28;20037;-69
2023/02/19 01:57:08;;;;;;;1.23;0.98;;;10.50;99.90;;;;;;5060367;28;20089;-67
2023/02/19 01:59:33;;;;;;;1.50;1.15;;;10.50;99.90;;;;;;5050899;28;20370;-67
2023/02/19 02:01:59;;;;;;;1.55;1.15;;;10.40;99.90;;;;;;5060520;28;20034;-67
2023/02/19 02:04:26;;;;;;;1.23;1.13;;;10.40;99.90;;;;;;5063492;28;20128;-69
2023/02/19 02:06:54;;;;;;;0.82;0.82;;;10.40;99.90;;;;;;5058798;28;20063;-68
2023/02/19 02:12:09;;;;;;;1.83;1.00;;;10.60;99.90;;;;;;5062188;28;20438;-68
2023/02/19 02:14:38;;;;;;;1.27;1.15;;;10.60;99.90;;;;;;5065180;28;20104;-70
2023/02/19 02:17:22;;;;;;;2.83;1.17;;;10.60;99.90;;;;;;5065260;28;20485;-68
2023/02/19 02:20:12;;;;;;;1.02;0.90;;;10.60;99.90;;;;;;5055450;28;20029;-69
2023/02/19 02:23:09;;;;;;;1.52;1.08;;;10.60;99.90;;;;;;5061120;28;20036;-70
2023/02/19 02:26:03;;;;;;;1.80;1.27;;;10.60;99.90;;;;;;5054348;28;21253;-70
2023/02/19 02:29:14;;;;;;;2.30;1.38;;;10.60;99.90;;;;;;5049266;28;20037;-68
2023/02/19 02:32:09;;;;;;;1.88;1.25;;;10.40;99.90;;;;;;5026613;28;20436;-69
2023/02/19 02:34:58;;;;;;;2.63;1.85;;;10.10;99.90;;;;;;5037992;28;20045;-70
2023/02/19 02:37:27;;;;;;;2.17;1.42;;;10.00;99.90;;;;;;5037025;28;20037;-69
2023/02/19 02:39:55;;;;;;;2.42;1.67;;;9.80;99.90;;;;;;5049940;28;20028;-69
2023/02/19 02:42:26;;;;;;;1.65;1.08;;;9.70;99.90;;;;;;5040921;28;20545;-70
2023/02/19 02:47:51;;;;;;;2.22;1.48;;;9.60;99.90;;;;;;5049814;28;20178;-69
2023/02/19 02:50:23;;;;;;;2.40;1.38;;;9.50;99.90;;;;;;5041720;28;20531;-68
2023/02/19 02:55:42;;;;;;;1.38;1.15;;;9.40;99.90;;;;;;5046244;28;20032;-70
2023/02/19 02:58:08;;;;;;;1.40;1.17;;;9.40;99.90;;;;;;5046961;28;20036;-68
2023/02/19 03:03:23;;;;;;;1.88;1.35;;;9.60;99.90;;;;;;5008015;28;20049;-68
2023/02/19 03:05:51;;;;;;;1.73;1.10;;;9.70;99.90;;;;;;5038979;28;20021;-68
2023/02/19 03:08:41;;;;;;;3.50;1.80;;;9.70;99.90;;;;;;5033587;28;20065;-68
2023/02/19 03:19:51;;;;;;;1.42;1.20;;;9.80;99.90;;;;;;5032564;28;20106;-68
2023/02/19 03:22:21;;;;;;;1.10;1.10;;;9.80;99.90;;;;;;5033616;28;20034;-68
2023/02/19 03:27:42;;;;;;;1.25;1.15;;;9.50;99.90;;;;;;5050009;28;20106;-70
2023/02/19 03:30:17;;;;;;;1.60;1.10;;;9.30;99.90;;;;;;5057994;28;20020;-68
2023/02/19 03:33:06;;;;;;;1.60;1.30;;;9.20;99.90;;;;;;5056502;28;20094;-70
2023/02/19 03:35:38;;;;;;;1.58;1.40;;;9.10;99.90;;;;;;5042857;28;20027;-68
2023/02/19 03:38:17;;;;;;;1.73;1.20;;;9.00;99.90;;;;;;5063538;28;20111;-68
2023/02/19 03:40:53;;;;;;;3.65;1.80;;;8.90;99.90;;;;;;5055065;28;20474;-69
2023/02/19 03:43:31;;;;;;;3.97;1.50;;;8.70;99.90;;;;;;5058474;28;20031;-69
2023/02/19 03:45:56;;;;;;;1.70;1.30;;;8.70;99.90;;;;;;5067515;28;20024;-69
2023/02/19 03:48:33;;;;;;;1.45;1.20;;;8.60;99.90;;;;;;5063683;28;20059;-68
2023/02/19 03:51:26;;;;;;;1.50;1.30;;;8.60;99.90;;;;;;5065092;28;20026;-69
2023/02/19 03:54:01;;;;;;;1.50;1.25;;;8.60;99.90;;;;;;5063081;28;20085;-68
2023/02/19 03:56:38;;;;;;;1.48;1.38;;;8.60;99.90;;;;;;5056273;28;20029;-68
2023/02/19 03:59:12;;;;;;;1.40;1.30;;;8.60;99.90;;;;;;5068570;28;20032;-69
2023/02/19 04:01:47;;;;;;;1.40;1.30;;;8.50;99.90;;;;;;5066341;28;20094;-70
2023/02/19 04:04:19;;;;;;;1.35;1.25;;;8.50;99.90;;;;;;5064808;28;20108;-69
2023/02/19 04:06:52;;;;;;;2.33;1.40;;;8.50;99.90;;;;;;5053839;28;20110;-68
2023/02/19 04:09:20;;;;;;;1.80;1.20;;;8.50;99.90;;;;;;5056247;28;20032;-69
2023/02/19 04:11:48;;;;;;;1.38;1.10;;;8.40;99.90;;;;;;5063322;28;20017;-69
2023/02/19 04:14:21;;;;;;;3.80;1.20;;;8.40;99.90;;;;;;5053254;28;20125;-68
2023/02/19 04:16:54;;;;;;;2.97;1.20;;;8.40;99.90;;;;;;5056051;28;20025;-70
2023/02/19 04:19:24;;;;;;;1.85;1.27;;;8.40;99.90;;;;;;5045695;28;20032;-68
2023/02/19 04:21:51;;;;;;;1.30;1.20;;;8.40;99.90;;;;;;5056322;28;20489;-69
2023/02/19 04:24:43;;;;;;;1.38;1.27;;;8.40;99.90;;;;;;5053623;28;20107;-69
2023/02/19 04:27:09;;;;;;;1.65;1.35;;;8.50;99.90;;;;;;5039766;28;20044;-68
2023/02/19 04:29:35;;;;;;;0.90;0.90;;;8.50;99.90;;;;;;5052094;28;20028;-69
2023/02/19 04:32:01;;;;;;;1.75;0.90;;;8.50;99.90;;;;;;5054269;28;20120;-69
2023/02/19 04:34:27;;;;;;;1.95;0.95;;;8.60;99.90;;;;;;5052967;28;20025;-69
2023/02/19 04:36:52;;;;;;;0.60;0.60;;;8.60;99.90;;;;;;5051826;28;20114;-69
2023/02/19 04:39:18;;;;;;;0.90;0.90;;;8.60;99.90;;;;;;5061001;28;20029;-70
2023/02/19 04:41:43;;;;;;;0.85;0.80;;;8.70;99.90;;;;;;5059465;28;20028;-69
2023/02/19 04:44:09;;;;;;;0.70;0.60;;;8.70;99.90;;;;;;5066644;28;20457;-70
2023/02/19 04:46:35;;;;;;;1.58;0.70;;;8.70;99.90;;;;;;5048929;28;20021;-70
2023/02/19 04:49:00;;;;;;;0.60;0.40;;;8.90;99.90;;;;;;5062486;28;20097;-70
2023/02/19 04:51:26;;;;;;;0.45;0.40;;;8.80;99.90;;;;;;5033706;28;20022;-70
2023/02/19 04:53:51;;;;;;;0.60;0.60;;;8.80;99.90;;;;;;5058610;28;20028;-69
2023/02/19 04:56:17;;;;;;;0.73;0.55;;;8.80;99.90;;;;;;5066018;28;20028;-70
2023/02/19 04:58:44;;;;;;;0.95;0.40;;;8.70;99.90;;;;;;5067664;28;20038;-69
2023/02/19 05:01:10;;;;;;;0.93;0.50;;;8.80;99.90;;;;;;5070250;28;20027;-68
2023/02/19 05:12:12;;;;;;;0.98;0.25;;;8.80;99.90;;;;;;5236659;22;21108;-71
2023/02/19 05:14:37;;;;;;;0.38;0.20;;;8.80;99.90;;;;;;5011520;28;20108;-70
2023/02/19 05:17:03;;;;;;;0.63;0.30;;;8.90;99.90;;;;;;4996069;28;20037;-70
2023/02/19 05:19:29;;;;;;;0.20;0.20;;;8.90;99.90;;;;;;5024090;28;20440;-70
2023/02/19 05:21:54;;;;;;;0.70;0.25;;;8.90;99.90;;;;;;5017372;28;20136;-70
2023/02/19 05:24:20;;;;;;;0.20;0.20;;;8.80;99.90;;;;;;5026401;28;20034;-70
2023/02/19 05:26:47;;;;;;;0.10;0.10;;;8.90;99.90;;;;;;5011643;28;20056;-70
2023/02/19 05:29:12;;;;;;;0.77;0.10;;;9.00;99.90;;;;;;5021834;28;20496;-70
2023/02/19 05:31:38;;;;;;;0.13;0.10;;;9.00;99.90;;;;;;5026660;28;20037;-70
2023/02/19 05:34:03;;;;;;;0.73;0.10;;;9.10;99.90;;;;;;5012767;28;20061;-70
2023/02/19 05:36:29;;;;;;;2.30;0.32;;;9.10;99.90;;;;;;5017083;28;20160;-70
2023/02/19 05:38:56;;;;;;;0.15;0.10;;;9.10;99.90;;;;;;5011624;28;20068;-70
2023/02/19 05:41:26;;;;;;;0.25;0.10;;;9.00;99.90;;;;;;5020041;28;20029;-70
2023/02/19 05:43:53;;;;;;;0.28;0.10;;;9.00;99.90;;;;;;5011944;28;20026;-70
2023/02/19 05:46:21;;;;;;;0.13;0.13;;;9.00;99.90;;;;;;5015962;28;20026;-70
2023/02/19 05:48:48;;;;;;;0.35;0.10;;;9.00;99.90;;;;;;5009887;28;20390;-70
2023/02/19 05:51:16;;;;;;;0.10;0.10;;;9.00;99.90;;;;;;5019353;28;20120;-70
2023/02/19 05:53:43;;;;;;;1.08;0.10;;;9.00;99.90;;;;;;5011900;28;20381;-70
2023/02/19 05:56:38;;;;;;;0.10;0.00;;;9.10;99.90;;;;;;5018539;28;20030;-69
2023/02/19 05:59:19;;;;;;;0.08;0.08;;;9.00;99.90;;;;;;5011101;28;20217;-70
2023/02/19 06:01:45;;;;;;;1.35;0.10;;;9.00;99.90;;;;;;5016912;28;20030;-70
2023/02/19 06:04:11;;;;;;;0.10;0.10;;;9.00;99.90;;;;;;5028314;28;20073;-69
2023/02/19 06:06:37;;;;;;;0.52;0.10;;;9.10;99.90;;;;;;5022257;28;20026;-72
2023/02/19 06:09:04;;;;;;;0.00;0.00;;;9.00;99.90;;;;;;5017093;28;20064;-70
2023/02/19 06:11:30;;;;;;;0.10;0.00;;;9.00;99.90;;;;;;5029582;28;20033;-69
2023/02/19 06:13:55;;;;;;;0.32;0.00;;;9.00;99.90;;;;;;5021470;28;20248;-70
2023/02/19 06:16:21;;;;;;;0.28;0.10;;;8.90;99.90;;;;;;5015529;28;20112;-70
2023/02/19 06:18:47;;;;;;;0.00;0.00;;;8.90;99.90;;;;;;5000040;28;20473;-71
2023/02/19 06:21:14;;;;;;;0.10;0.05;;;8.80;99.90;;;;;;5019995;28;20022;-70
2023/02/19 06:23:40;;;;;;;0.00;0.00;;;8.70;99.90;;;;;;5013227;28;21477;-71
2023/02/19 06:26:19;;;;;;;0.63;0.00;;;8.70;99.90;;;;;;5017751;28;20077;-70
2023/02/19 06:28:46;;;;;;;0.05;0.05;;;8.70;99.90;;;;;;5018598;28;20029;-70
2023/02/19 06:31:12;;;;;;;0.10;0.10;;;8.80;99.90;;;;;;5010539;28;20038;-70
2023/02/19 06:33:39;;;;;;;0.65;0.17;;;8.70;99.90;;;;;;5019698;28;20029;-72
2023/02/19 06:36:06;;;;;;;0.05;0.05;;;8.70;99.90;;;;;;5020464;28;20029;-71
2023/02/19 06:38:32;;;;;;;0.10;0.10;;;8.70;99.90;;;;;;5016337;28;20036;-70
2023/02/19 06:41:03;;;;;;;0.10;0.10;;;8.70;99.90;;;;;;5018810;28;20026;-70
2023/02/19 06:43:30;;;;;;;0.35;0.20;;;8.70;99.90;;;;;;5017137;28;20075;-70
2023/02/19 06:46:00;;;;;;;0.47;0.20;;;8.60;99.90;;;;;;5016886;28;20029;-70
2023/02/19 06:48:27;;;;;;;0.10;0.10;;;8.70;99.90;;;;;;5006317;28;20025;-71
2023/02/19 06:50:53;;;;;;;0.38;0.38;;;8.70;99.90;;;;;;5014610;28;20092;-70
2023/02/19 06:53:19;;;;;;;0.25;0.15;;;8.70;99.90;;;;;;5017116;28;20038;-70
2023/02/19 06:56:05;;;;;;;0.40;0.10;;;8.80;99.90;;;;;;5026361;28;20030;-70
2023/02/19 06:58:31;;;;;;;0.20;0.20;;;8.90;99.90;;;;;;5025785;28;20448;-70
2023/02/19 07:00:57;;;;;;;0.38;0.20;;;9.00;99.90;;;;;;5014674;28;20292;-70
2023/02/19 07:03:22;;;;;;;0.20;0.20;;;9.00;99.90;;;;;;5023234;28;20098;-71
2023/02/19 07:05:48;;;;;;;0.40;0.20;;;9.10;99.90;;;;;;5013457;28;20026;-70
2023/02/19 07:08:16;;;;;;;0.40;0.40;;;9.10;99.90;;;;;;5021328;28;20424;-70
2023/02/19 07:10:42;;;;;;;0.20;0.20;;;9.20;99.90;;;;;;5020590;28;20533;-70
2023/02/19 07:13:08;;;;;;;0.25;0.25;;;9.30;99.90;;;;;;5032368;28;20037;-70
2023/02/19 07:15:33;;;;;;;0.82;0.38;;;9.30;99.90;;;;;;5019915;28;20029;-70
2023/02/19 07:17:59;;;;;;;0.43;0.30;;;9.20;99.90;;;;;;5023242;28;20148;-71
2023/02/19 07:20:24;;;;;;;0.40;0.40;;;9.20;99.90;;;;;;5023750;28;20034;-71
2023/02/19 07:22:50;;;;;;;0.30;0.30;;;9.30;99.90;;;;;;5030620;28;20390;-70
2023/02/19 07:25:16;;;;;;;0.40;0.40;;;9.20;99.90;;;;;;5018460;28;20022;-70
2023/02/19 07:27:41;;;;;;;0.57;0.32;;;9.20;99.90;;;;;;5002033;28;20087;-70
2023/02/19 07:30:07;;;;;;;0.35;0.30;;;9.10;99.90;;;;;;5023327;28;20033;-70
2023/02/19 07:32:33;;;;;;;0.85;0.30;;;9.10;99.90;;;;;;5029251;28;20025;-69
2023/02/19 07:34:59;;;;;;;1.05;0.40;;;9.10;99.90;;;;;;5016454;28;20036;-69
2023/02/19 07:37:24;;;;;;;2.20;0.45;;;9.20;99.90;;;;;;5022018;28;20478;-70
2023/02/19 07:39:50;;;;;;;0.30;0.22;;;9.20;99.90;;;;;;5022959;28;20033;-69
2023/02/19 07:42:15;;;;;;;0.68;0.47;;;9.20;99.90;;;;;;5020933;28;20108;-69
2023/02/19 07:44:41;;;;;;;0.93;0.40;;;9.30;99.90;;;;;;5014378;28;20042;-71
2023/02/19 07:47:06;;;;;;;0.50;0.50;;;9.30;99.90;;;;;;5018497;28;20045;-70
2023/02/19 07:49:32;;;;;;;0.70;0.70;;;9.40;99.90;;;;;;5017657;28;20103;-70
2023/02/19 07:51:58;;;;;;;0.68;0.68;;;9.50;99.90;;;;;;5014707;28;20053;-70
2023/02/19 07:54:24;;;;;;;0.45;0.45;;;9.60;99.90;;;;;;5021943;28;20057;-70
2023/02/19 07:56:49;;;;;;;1.02;0.57;;;9.60;99.90;;;;;;5019844;28;20068;-71
2023/02/19 07:59:15;;;;;;;1.15;0.60;;;9.70;99.90;;;;;;5022531;28;20033;-69
2023/02/19 08:04:24;;;;;;;0.50;0.50;;;9.80;99.90;;;;;;5008281;28;20040;-70
2023/02/19 08:06:51;;;;;;;0.60;0.60;;;9.80;99.90;;;;;;5009341;28;20108;-69
2023/02/19 08:09:17;;;;;;;1.55;0.85;;;9.80;99.90;;;;;;5015537;28;20030;-69
2023/02/19 08:14:27;;;;;;;0.52;0.50;;;9.90;99.90;;;;;;5011983;28;20141;-69
2023/02/19 08:16:53;;;;;;;0.80;0.55;;;9.90;99.90;;;;;;5025196;28;20123;-70
2023/02/19 08:19:19;;;;;;;1.45;0.40;;;10.00;99.90;;;;;;5018378;28;20144;-69
2023/02/19 08:21:45;;;;;;;1.10;0.70;;;10.00;99.90;;;;;;5008496;28;20033;-69
2023/02/19 08:24:11;;;;;;;0.68;0.50;;;10.10;99.90;;;;;;5012339;28;20391;-69
2023/02/19 08:26:36;;;;;;;0.68;0.50;;;10.20;99.90;;;;;;5015085;28;20037;-72
2023/02/19 08:29:03;;;;;;;0.95;0.50;;;10.20;99.90;;;;;;5017559;28;20045;-69
2023/02/19 08:31:29;;;;;;;0.38;0.38;;;10.30;99.90;;;;;;5020765;28;20041;-69
2023/02/19 08:33:55;;;;;;;1.35;0.60;;;10.30;99.90;;;;;;5011596;28;20092;-69
2023/02/19 08:36:20;;;;;;;0.60;0.43;;;10.40;99.90;;;;;;5012577;28;20030;-70
2023/02/19 08:38:46;;;;;;;1.70;0.85;;;10.50;99.90;;;;;;5008287;28;21339;-67
2023/02/19 08:41:13;;;;;;;1.38;0.40;;;10.50;99.90;;;;;;5027066;28;20037;-69
2023/02/19 08:43:40;;;;;;;0.85;0.50;;;10.50;99.90;;;;;;5016687;28;20104;-73
2023/02/19 08:46:08;;;;;;;1.30;0.40;;;10.50;99.90;;;;;;5027110;28;20060;-71
2023/02/19 08:48:34;;;;;;;0.77;0.40;;;10.50;99.90;;;;;;5017192;28;20038;-72
2023/02/19 08:51:02;;;;;;;0.75;0.40;;;10.60;99.90;;;;;;5020577;28;20449;-70
2023/02/19 08:53:30;;;;;;;0.40;0.30;;;10.60;99.90;;;;;;5016843;28;20461;-73
2023/02/19 08:55:55;;;;;;;0.40;0.40;;;10.60;99.90;;;;;;5011855;28;20216;-70
2023/02/19 08:58:21;;;;;;;0.30;0.30;;;10.50;99.90;;;;;;5017450;28;20473;-71
2023/02/19 09:00:47;;;;;;;0.60;0.28;;;10.50;99.90;;;;;;5021212;28;20026;-71
2023/02/19 09:03:13;;;;;;;0.52;0.43;;;10.50;99.90;;;;;;5022251;28;20111;-70
2023/02/19 09:05:39;;;;;;;1.40;0.63;;;10.40;99.90;;;;;;5019738;28;20086;-72
2023/02/19 09:08:04;;;;;;;1.05;0.40;;;10.30;99.90;;;;;;5011946;28;20390;-70
2023/02/19 09:10:30;;;;;;;0.75;0.38;;;10.30;99.90;;;;;;5011177;28;20044;-69
2023/02/19 09:12:56;;;;;;;1.30;0.50;;;10.20;99.90;;;;;;5019550;28;20462;-69
2023/02/19 09:15:21;;;;;;;2.15;0.40;;;10.20;99.90;;;;;;5012181;28;20026;-70
2023/02/19 09:17:51;;;;;;;0.50;0.50;;;10.10;99.90;;;;;;5019865;28;20033;-70
2023/02/19 09:20:17;;;;;;;0.50;0.40;;;10.10;99.90;;;;;;5014836;28;20482;-72
2023/02/19 09:22:42;;;;;;;1.38;0.68;;;10.10;99.90;;;;;;5012434;28;20034;-69
2023/02/19 09:25:08;;;;;;;0.85;0.65;;;10.20;99.90;;;;;;5019570;28;20084;-71
2023/02/19 09:27:34;;;;;;;0.73;0.50;;;10.30;99.90;;;;;;5023563;28;20040;-68
2023/02/19 09:29:59;;;;;;;2.55;0.50;;;10.40;99.90;;;;;;5018696;28;20053;-71
2023/02/19 09:32:25;;;;;;;2.45;0.80;;;10.40;99.90;;;;;;5017095;28;20026;-73
2023/02/19 09:34:50;;;;;;;4.93;0.90;;;10.40;99.90;;;;;;5010111;28;20066;-73
2023/02/19 09:37:16;;;;;;;2.03;0.80;;;10.50;99.90;;;;;;5012379;28;20394;-71
2023/02/19 09:39:42;;;;;;;4.82;0.80;;;10.60;99.90;;;;;;5020082;28;20091;-72
2023/02/19 09:42:28;;;;;;;3.70;0.80;;;10.70;99.90;;;;;;5016027;28;20037;-72
2023/02/19 09:44:56;;;;;;;2.22;0.73;;;10.80;99.90;;;;;;5013403;28;20038;-72
2023/02/19 09:47:25;;;;;;;2.13;0.80;;;10.80;99.90;;;;;;5011692;28;20036;-72
2023/02/19 09:49:55;;;;;;;2.83;0.80;;;10.80;99.90;;;;;;5012807;28;20022;-70
2023/02/19 09:52:29;;;;;;;3.70;0.82;;;11.00;99.90;;;;;;5020007;28;20049;-73
2023/02/19 09:55:00;;;;;;;3.13;1.00;;;11.00;99.90;;;;;;5011639;28;20867;-74
2023/02/19 09:57:34;;;;;;;4.22;0.70;;;11.10;99.90;;;;;;5019669;28;20449;-73
2023/02/19 10:00:28;;;;;;;2.30;0.63;;;11.10;99.90;;;;;;5010528;28;20030;-74
2023/02/19 10:03:18;;;;;;;3.03;0.88;;;11.20;99.90;;;;;;5022128;28;20040;-75
2023/02/19 10:05:44;;;;;;;;;;;11.30;99.90;;;;;;5020812;28;20035;-77
2023/02/19 10:08:17;;;;;;;2.58;0.43;;;11.40;99.90;;;;;;5015908;28;19996;-74
2023/02/19 10:10:43;;;;;;;2.50;0.80;;;11.40;99.90;;;;;;5015478;28;20041;-71
2023/02/19 10:13:22;;;;;;;2.20;0.55;;;11.50;99.90;;;;;;5005188;28;20085;-70
2023/02/19 10:15:55;;;;;;;4.32;1.00;;;11.50;99.90;;;;;;5008861;28;20029;-75
2023/02/19 10:18:27;;;;;;;3.13;0.80;;;11.70;99.90;;;;;;5018550;28;20096;-72
2023/02/19 10:20:54;;;;;;;3.10;0.68;;;11.80;99.90;;;;;;5015381;28;20026;-71
2023/02/19 10:23:21;;;;;;;2.80;0.75;;;11.80;99.90;;;;;;5021274;28;20445;-72
2023/02/19 10:25:53;;;;;;;2.33;0.70;;;11.80;99.90;;;;;;5015477;28;20045;-75
2023/02/19 10:28:21;;;;;;;2.38;0.70;;;11.90;99.90;;;;;;5006568;28;20049;-76
2023/02/19 10:30:53;;;;;;;3.50;1.00;;;12.00;99.90;;;;;;5021578;28;20056;-75
2023/02/19 10:33:19;;;;;;;6.68;1.10;;;12.10;99.90;;;;;;5017290;28;20109;-76
2023/02/19 10:35:56;;;;;;;2.55;0.60;;;12.20;99.90;;;;;;5021051;28;20029;-77
2023/02/19 10:38:32;;;;;;;2.53;0.90;;;12.30;99.90;;;;;;5010639;28;20045;-77
2023/02/19 10:41:02;;;;;;;2.97;0.60;;;12.20;99.90;;;;;;5014816;28;20045;-82
2023/02/19 10:43:33;;;;;;;2.45;0.50;;;12.20;99.90;;;;;;5025504;28;20068;-86
2023/02/19 10:46:02;;;;;;;5.78;1.10;;;12.20;99.90;;;;;;5026940;28;20034;-80
2023/02/19 10:48:35;;;;;;;2.45;0.52;;;12.20;99.90;;;;;;5018565;28;20494;-77
2023/02/19 10:51:05;;;;;;;2.88;0.80;;;12.20;99.90;;;;;;5024201;28;20038;-74
2023/02/19 10:53:44;;;;;;;1.58;0.40;;;12.10;99.90;;;;;;5020958;28;20036;-74
2023/02/19 10:56:24;;;;;;;4.10;1.00;;;12.00;99.90;;;;;;5013153;28;20026;-74
2023/02/19 10:58:51;;;;;;;3.47;1.00;;;12.10;99.90;;;;;;5018185;28;20025;-76
2023/02/19 11:01:28;;;;;;;1.85;0.60;;;12.10;99.90;;;;;;5022470;28;20041;-74
2023/02/19 11:04:14;;;;;;;2.42;0.70;;;12.10;99.90;;;;;;5016064;28;20037;-73
2023/02/19 11:06:39;;;;;;;3.03;0.88;;;12.30;99.90;;;;;;5014010;28;20067;-74
2023/02/19 11:09:17;;;;;;;4.65;0.90;;;12.40;99.90;;;;;;5012159;28;20030;-75
2023/02/19 11:11:42;;;;;;;6.35;0.98;;;12.50;99.90;;;;;;5016806;28;20036;-74
2023/02/19 11:14:16;;;;;;;3.05;0.80;;;12.50;99.90;;;;;;5016093;28;20030;-75
2023/02/19 11:16:51;;;;;;;4.35;0.88;;;12.50;99.90;;;;;;5012586;28;20105;-75
2023/02/19 11:19:31;;;;;;;5.57;0.93;;;12.50;99.90;;;;;;5020010;28;20025;-74
2023/02/19 11:21:59;;;;;;;2.47;0.77;;;12.50;99.90;;;;;;5013659;28;20036;-73
2023/02/19 11:24:39;;;;;;;2.45;1.17;;;12.60;99.90;;;;;;5020504;28;20038;-75
2023/02/19 11:27:15;;;;;;;3.45;1.38;;;12.50;99.90;;;;;;5026123;28;20064;-74
2023/02/19 11:29:41;;;;;;;3.25;0.85;;;12.50;99.90;;;;;;5015170;28;20029;-75
2023/02/19 11:32:36;;;;;;;3.70;0.80;;;12.60;99.90;;;;;;5025448;28;20030;-74
2023/02/19 11:35:17;;;;;;;3.22;0.95;;;12.60;99.90;;;;;;4993939;28;20029;-74
2023/02/19 11:37:54;;;;;;;3.90;1.05;;;12.50;99.90;;;;;;5014114;28;20116;-75
2023/02/19 11:40:28;;;;;;;3.88;1.00;;;12.30;99.90;;;;;;5020430;28;20088;-75
2023/02/19 11:43:16;;;;;;;5.13;1.20;;;12.20;99.90;;;;;;5012166;28;20038;-75
2023/02/19 11:46:16;;;;;;;1.15;0.60;;;12.10;99.90;;;;;;5009329;28;20029;-74
2023/02/19 11:48:54;;;;;;;4.10;0.90;;;12.10;99.90;;;;;;5020117;28;20037;-74
2023/02/19 11:51:30;;;;;;;2.17;0.57;;;12.20;99.90;;;;;;5014795;28;20062;-75
2023/02/19 11:54:25;;;;;;;2.45;0.80;;;12.30;99.90;;;;;;5017315;28;20037;-74
2023/02/19 11:57:35;;;;;;;3.97;0.80;;;12.30;99.90;;;;;;4973784;28;20041;-76
2023/02/19 12:00:30;;;;;;;2.05;0.65;;;12.20;99.90;;;;;;5000332;28;20485;-74
2023/02/19 12:03:30;;;;;;;3.38;0.98;;;12.20;99.90;;;;;;5007745;28;20033;-74
2023/02/19 12:06:24;;;;;;;4.90;1.05;;;12.20;99.90;;;;;;5014129;28;20026;-73
2023/02/19 12:09:08;;;;;;;4.20;1.10;;;12.20;99.90;;;;;;5023651;28;20021;-74
2023/02/19 12:11:54;;;;;;;2.78;0.77;;;12.30;99.90;;;;;;5021022;28;20033;-73
2023/02/19 12:14:57;;;;;;;2.53;0.80;;;12.30;99.90;;;;;;5021783;28;20041;-73
2023/02/19 12:17:41;;;;;;;2.55;0.80;;;12.20;99.90;;;;;;4974718;28;20092;-72
2023/02/19 12:20:13;;;;;;;2.63;0.95;;;12.10;99.90;;;;;;5012394;28;20107;-72
2023/02/19 12:23:06;;;;;;;2.70;0.60;;;12.10;99.90;;;;;;4994690;28;20030;-71
2023/02/19 12:26:10;;;;;;;4.38;0.80;;;12.10;99.90;;;;;;5014761;28;20029;-73
2023/02/19 12:29:08;;;;;;;2.50;0.68;;;12.20;99.90;;;;;;4993684;28;20050;-71
2023/02/19 12:31:43;;;;;;;5.28;1.00;;;12.30;99.90;;;;;;5005988;28;20045;-74
2023/02/19 12:34:30;;;;;;;3.80;0.60;;;12.40;99.90;;;;;;5017153;28;20034;-73
2023/02/19 12:37:14;;;;;;;2.13;0.77;;;12.40;99.90;;;;;;5022680;28;20114;-74
2023/02/19 12:39:57;;;;;;;5.47;1.00;;;12.30;99.90;;;;;;5020209;28;20389;-72
2023/02/19 12:42:50;;;;;;;2.70;0.90;;;12.30;99.90;;;;;;5025073;28;20022;-74
2023/02/19 12:45:22;;;;;;;3.50;1.10;;;12.30;99.90;;;;;;5011124;28;20432;-74
2023/02/19 12:47:57;;;;;;;1.95;0.73;;;12.30;99.90;;;;;;5013018;28;20562;-73
2023/02/19 12:50:26;;;;;;;3.97;1.23;;;12.40;99.90;;;;;;5014335;28;20030;-75
2023/02/19 12:52:57;;;;;;;4.45;1.17;;;12.60;99.90;;;;;;5018775;28;20025;-73
2023/02/19 12:55:37;;;;;;;3.90;0.90;;;12.70;99.90;;;;;;5012017;28;20486;-74
2023/02/19 12:58:05;;;;;;;2.55;1.00;;;12.80;99.90;;;;;;5019088;28;20041;-73
2023/02/19 13:00:49;;;;;;;4.07;0.93;;;12.90;99.90;;;;;;5021218;28;20099;-73
2023/02/19 13:03:42;;;;;;;2.63;0.80;;;13.00;99.90;;;;;;5015320;28;20029;-75
2023/02/19 13:06:54;;;;;;;3.30;1.08;;;13.00;99.90;;;;;;5012134;28;20121;-75
2023/02/19 13:09:37;;;;;;;2.50;0.73;;;13.00;99.90;;;;;;5009464;28;20054;-73
2023/02/19 13:12:14;;;;;;;1.08;0.60;;;12.90;99.90;;;;;;5010588;28;20049;-74
2023/02/19 13:14:51;;;;;;;6.53;0.95;;;12.70;99.90;;;;;;5012347;28;20026;-72
2023/02/19 13:17:32;;;;;;;3.97;0.85;;;12.50;99.90;;;;;;5012781;28;20466;-72
2023/02/19 13:20:32;;;;;;;4.10;0.77;;;12.40;99.90;;;;;;5012619;28;20454;-73
2023/02/19 13:26:28;;;;;;;1.33;0.52;;;12.10;99.90;;;;;;5016502;28;20036;-72
2023/02/19 13:29:11;;;;;;;3.63;0.88;;;12.00;99.90;;;;;;4963718;28;20053;-73
2023/02/19 13:32:02;;;;;;;3.08;0.73;;;11.90;99.90;;;;;;5023834;28;20049;-72
2023/02/19 13:34:39;;;;;;;5.50;1.10;;;11.80;99.90;;;;;;5000907;28;20046;-74
2023/02/19 13:37:05;;;;;;;2.97;0.70;;;11.70;99.90;;;;;;5006352;28;20030;-72
2023/02/19 13:39:30;;;;;;;2.67;0.77;;;11.60;99.90;;;;;;5013137;28;20481;-73
2023/02/19 13:42:00;;;;;;;3.55;0.88;;;11.40;99.90;;;;;;5015536;28;20057;-73
2023/02/19 13:44:31;;;;;;;2.83;0.70;;;11.40;99.90;;;;;;5011167;28;20038;-73
2023/02/19 13:46:58;;;;;;;3.15;0.73;;;11.30;99.90;;;;;;5011601;28;20030;-74
2023/02/19 13:49:26;;;;;;;4.07;0.85;;;11.20;99.90;;;;;;5011261;28;20033;-73
2023/02/19 13:51:53;;;;;;;2.85;0.82;;;11.20;99.90;;;;;;5013132;28;20034;-73
2023/02/19 13:54:23;;;;;;;4.40;1.15;;;11.20;99.90;;;;;;5013311;28;20037;-72
2023/02/19 13:56:49;;;;;;;;;;;11.20;99.90;;;;;;5012873;28;20049;-72